Time;durP1;ratioP1;P1;durP2;ratioP2;P2;SDS_P1;SDS_P2;PMS_P1;PMS_P2;Temp;Humidity;BMP_temperature;BMP_pressure;BME280_temperature;BME280_humidity;BME280_pressure;Samples;Min_cycle;Max_cycle;Signal;HPM_P1;HPM_P2
2023/12/17 00:00:04;;;;;;;0.98;0.98;;;6.70;99.90;;;;;;6322169;22;20265;-87
2023/12/17 00:02:34;;;;;;;0.45;0.45;;;6.60;99.90;;;;;;6294043;22;20171;-88
2023/12/17 00:05:01;;;;;;;0.70;0.70;;;6.70;99.90;;;;;;6293641;22;20166;-85
2023/12/17 00:07:31;;;;;;;1.50;1.40;;;6.70;99.90;;;;;;6322518;22;20182;-85
2023/12/17 00:10:00;;;;;;;0.40;0.40;;;6.80;99.90;;;;;;6321952;22;20162;-87
2023/12/17 00:12:27;;;;;;;0.40;0.40;;;6.90;99.90;;;;;;6321195;22;20186;-85
2023/12/17 00:14:55;;;;;;;1.45;1.45;;;6.90;99.90;;;;;;6318077;22;20485;-85
2023/12/17 00:17:23;;;;;;;3.60;3.40;;;6.90;99.90;;;;;;6321159;22;20663;-85
2023/12/17 00:19:54;;;;;;;0.40;0.40;;;6.90;99.90;;;;;;6322884;22;20170;-88
2023/12/17 00:22:22;;;;;;;0.50;0.50;;;6.90;99.90;;;;;;6320244;22;20142;-87
2023/12/17 00:24:49;;;;;;;0.75;0.75;;;7.00;99.90;;;;;;6271149;22;20248;-86
2023/12/17 00:27:16;;;;;;;0.40;0.40;;;7.00;99.90;;;;;;6321445;22;20197;-88
2023/12/17 00:29:45;;;;;;;0.50;0.50;;;7.00;99.90;;;;;;6318871;22;20182;-82
2023/12/17 00:32:12;;;;;;;0.40;0.40;;;6.90;99.90;;;;;;6319290;22;20166;-85
2023/12/17 00:34:39;;;;;;;2.22;2.13;;;7.00;99.90;;;;;;6317738;22;20177;-84
2023/12/17 00:37:08;;;;;;;0.40;0.40;;;7.20;99.90;;;;;;6317261;22;20186;-84
2023/12/17 00:39:40;;;;;;;0.40;0.40;;;7.20;99.90;;;;;;6314841;22;20185;-82
2023/12/17 00:42:06;;;;;;;0.40;0.40;;;7.20;99.90;;;;;;6290086;22;20409;-82
2023/12/17 00:44:34;;;;;;;1.13;1.13;;;7.20;99.90;;;;;;6315059;22;20200;-83
2023/12/17 00:47:02;;;;;;;0.40;0.40;;;7.20;99.90;;;;;;6288876;22;20261;-84
2023/12/17 00:49:29;;;;;;;0.55;0.55;;;7.10;99.90;;;;;;6320356;22;20238;-87
2023/12/17 00:52:02;;;;;;;0.40;0.40;;;7.20;99.90;;;;;;6320142;22;20188;-82
2023/12/17 00:54:29;;;;;;;0.77;0.77;;;7.20;99.90;;;;;;6315528;22;20379;-84
2023/12/17 00:56:56;;;;;;;0.40;0.40;;;7.20;99.90;;;;;;6316986;22;20182;-85
2023/12/17 00:59:24;;;;;;;0.80;0.80;;;7.20;99.90;;;;;;6315558;22;20241;-81
2023/12/17 01:01:51;;;;;;;0.50;0.50;;;7.20;99.90;;;;;;6289577;22;20224;-84
2023/12/17 01:04:24;;;;;;;3.25;2.38;;;7.20;99.90;;;;;;6316648;22;20242;-82
2023/12/17 01:06:52;;;;;;;0.60;0.60;;;7.20;99.90;;;;;;6316880;22;20205;-84
2023/12/17 01:09:20;;;;;;;1.10;1.10;;;7.20;99.90;;;;;;6319821;22;20222;-87
2023/12/17 01:11:47;;;;;;;0.40;0.40;;;7.20;99.90;;;;;;6316047;22;20173;-84
2023/12/17 01:14:16;;;;;;;0.50;0.50;;;7.30;99.90;;;;;;6317459;22;20568;-86
2023/12/17 01:16:44;;;;;;;0.52;0.52;;;7.20;99.90;;;;;;6289492;22;20380;-80
2023/12/17 01:19:11;;;;;;;1.05;1.05;;;7.10;99.90;;;;;;6316130;22;20193;-84
2023/12/17 01:21:42;;;;;;;0.40;0.40;;;7.20;99.90;;;;;;6288684;22;20179;-81
2023/12/17 01:24:17;;;;;;;0.40;0.40;;;7.20;99.90;;;;;;6290164;22;20201;-85
2023/12/17 01:26:45;;;;;;;0.40;0.40;;;7.10;99.90;;;;;;6317447;22;20170;-82
2023/12/17 01:29:12;;;;;;;0.45;0.45;;;7.10;99.90;;;;;;6314534;22;20235;-82
2023/12/17 01:31:40;;;;;;;0.45;0.45;;;7.10;99.90;;;;;;6316733;22;20241;-83
2023/12/17 01:34:08;;;;;;;0.40;0.40;;;7.20;99.90;;;;;;6318409;22;20234;-82
2023/12/17 01:36:36;;;;;;;0.40;0.40;;;7.20;99.90;;;;;;6316838;22;20209;-87
2023/12/17 01:39:06;;;;;;;0.40;0.40;;;7.10;99.90;;;;;;6315453;22;20204;-84
2023/12/17 01:41:34;;;;;;;1.52;1.42;;;7.20;99.90;;;;;;6315896;22;20241;-84
2023/12/17 01:44:01;;;;;;;0.68;0.68;;;7.10;99.90;;;;;;6289448;22;20255;-86
2023/12/17 01:46:28;;;;;;;0.40;0.40;;;7.10;99.90;;;;;;6314855;22;20184;-82
2023/12/17 01:48:59;;;;;;;0.40;0.40;;;7.00;99.90;;;;;;6315949;22;20162;-81
2023/12/17 01:51:30;;;;;;;0.40;0.40;;;7.00;99.90;;;;;;6291959;22;20181;-82
2023/12/17 01:53:59;;;;;;;0.77;0.77;;;7.00;99.90;;;;;;6318359;22;20201;-85
2023/12/17 01:56:30;;;;;;;1.40;1.30;;;7.00;99.90;;;;;;6291719;22;20230;-85
2023/12/17 01:58:57;;;;;;;0.40;0.40;;;7.00;99.90;;;;;;6296038;22;20169;-81
2023/12/17 02:01:26;;;;;;;0.50;0.50;;;7.00;99.90;;;;;;6335422;22;20230;-82
2023/12/17 02:03:54;;;;;;;0.70;0.70;;;7.00;99.90;;;;;;6334706;22;20224;-84
2023/12/17 02:06:23;;;;;;;0.40;0.40;;;7.00;99.90;;;;;;6333391;22;20248;-82
2023/12/17 02:08:51;;;;;;;0.40;0.40;;;7.00;99.90;;;;;;6297290;22;20174;-86
2023/12/17 02:11:21;;;;;;;0.50;0.50;;;7.00;99.90;;;;;;6320108;22;20219;-82
2023/12/17 02:13:50;;;;;;;0.50;0.50;;;6.90;99.90;;;;;;6319065;22;20180;-81
2023/12/17 02:16:18;;;;;;;0.60;0.60;;;7.00;99.90;;;;;;6318134;22;20194;-83
2023/12/17 02:18:45;;;;;;;2.05;0.82;;;7.00;99.90;;;;;;6313275;22;20178;-83
2023/12/17 02:21:12;;;;;;;1.17;1.08;;;7.00;99.90;;;;;;6289201;22;20185;-80
2023/12/17 02:23:40;;;;;;;0.40;0.40;;;7.00;99.90;;;;;;6315005;22;20190;-81
2023/12/17 02:26:07;;;;;;;0.40;0.40;;;7.00;99.90;;;;;;6312862;22;20170;-82
2023/12/17 02:28:34;;;;;;;1.02;1.02;;;7.00;99.90;;;;;;6312014;22;20201;-82
2023/12/17 02:31:01;;;;;;;0.88;0.88;;;6.90;99.90;;;;;;6314261;22;20182;-84
2023/12/17 02:33:30;;;;;;;0.88;0.88;;;6.90;99.90;;;;;;6313692;22;20228;-82
2023/12/17 02:35:57;;;;;;;0.40;0.40;;;7.00;99.90;;;;;;6313484;22;20343;-83
2023/12/17 02:38:27;;;;;;;1.02;1.02;;;6.90;99.90;;;;;;6312131;22;20184;-85
2023/12/17 02:40:57;;;;;;;0.75;0.75;;;6.90;99.90;;;;;;6314075;22;20205;-82
2023/12/17 02:43:25;;;;;;;0.95;0.95;;;6.90;99.90;;;;;;6314689;22;20241;-84
2023/12/17 02:45:54;;;;;;;1.17;1.08;;;6.90;99.90;;;;;;6315261;22;20182;-85
2023/12/17 02:48:22;;;;;;;0.93;0.93;;;6.90;99.90;;;;;;6313420;22;20455;-79
2023/12/17 02:50:50;;;;;;;2.58;1.75;;;6.80;99.90;;;;;;6317126;22;20229;-81
2023/12/17 02:53:18;;;;;;;0.50;0.50;;;6.70;99.90;;;;;;6320882;22;20182;-83
2023/12/17 02:55:46;;;;;;;0.77;0.77;;;6.70;99.90;;;;;;6291994;22;20241;-83
2023/12/17 02:58:15;;;;;;;0.50;0.50;;;6.70;99.90;;;;;;6316699;22;20178;-83
2023/12/17 03:00:42;;;;;;;0.60;0.60;;;6.70;99.90;;;;;;6316844;22;20174;-83
2023/12/17 03:03:09;;;;;;;1.85;1.77;;;6.60;99.90;;;;;;6316243;22;20170;-83
2023/12/17 03:05:36;;;;;;;0.95;0.95;;;6.50;99.90;;;;;;6313039;22;20247;-82
2023/12/17 03:08:04;;;;;;;0.50;0.50;;;6.40;99.90;;;;;;6313084;22;20178;-85
2023/12/17 03:10:30;;;;;;;1.63;1.58;;;6.40;99.90;;;;;;6311491;22;20178;-85
2023/12/17 03:12:58;;;;;;;0.60;0.60;;;6.40;99.90;;;;;;6315053;22;20179;-85
2023/12/17 03:18:03;;;;;;;2.40;1.77;;;6.30;99.90;;;;;;6158867;23;20317;-82
2023/12/17 03:20:31;;;;;;;1.23;1.23;;;6.10;99.90;;;;;;6159951;23;20185;-88
2023/12/17 03:22:59;;;;;;;0.40;0.40;;;6.10;99.90;;;;;;6164161;23;20197;-85
2023/12/17 03:25:27;;;;;;;0.95;0.93;;;6.00;99.90;;;;;;6166903;23;20224;-85
2023/12/17 03:27:56;;;;;;;3.03;2.50;;;6.00;99.90;;;;;;6170225;22;20181;-85
2023/12/17 03:30:23;;;;;;;1.85;0.95;;;5.90;99.90;;;;;;6254695;22;20198;-88
2023/12/17 03:32:52;;;;;;;1.35;1.35;;;5.90;99.90;;;;;;6291554;22;20217;-88
2023/12/17 03:35:20;;;;;;;0.60;0.60;;;5.70;99.90;;;;;;6275134;22;20268;-86
2023/12/17 03:37:47;;;;;;;0.50;0.50;;;5.70;99.90;;;;;;6297906;22;20206;-85
2023/12/17 03:40:15;;;;;;;0.60;0.60;;;5.50;99.90;;;;;;6319737;22;20189;-84
2023/12/17 03:42:42;;;;;;;1.80;1.70;;;5.40;99.90;;;;;;6296445;22;20205;-85
2023/12/17 03:45:09;;;;;;;0.60;0.60;;;5.40;99.90;;;;;;6316113;22;20426;-81
2023/12/17 03:47:40;;;;;;;0.60;0.60;;;5.40;99.90;;;;;;6311503;22;20170;-84
2023/12/17 03:50:09;;;;;;;0.80;0.80;;;5.40;99.90;;;;;;6312165;22;20220;-81
2023/12/17 03:52:36;;;;;;;0.70;0.70;;;5.50;99.90;;;;;;6311422;22;20265;-82
2023/12/17 03:55:03;;;;;;;2.22;2.03;;;5.50;99.90;;;;;;6311074;22;20277;-85
2023/12/17 03:57:29;;;;;;;0.63;0.63;;;5.60;99.90;;;;;;6311132;22;20182;-84
2023/12/17 03:59:58;;;;;;;2.75;1.30;;;5.60;99.90;;;;;;6284552;22;20242;-84
2023/12/17 04:02:25;;;;;;;0.50;0.50;;;5.60;99.90;;;;;;6310567;22;20365;-81
2023/12/17 04:04:52;;;;;;;0.90;0.90;;;5.70;99.90;;;;;;6311112;22;20204;-85
2023/12/17 04:07:20;;;;;;;0.95;0.95;;;5.50;99.90;;;;;;6312553;22;20185;-81
2023/12/17 04:09:49;;;;;;;1.73;1.63;;;5.40;99.90;;;;;;6311191;22;20178;-84
2023/12/17 04:12:19;;;;;;;1.35;1.25;;;5.40;99.90;;;;;;6284796;22;20178;-81
2023/12/17 04:14:46;;;;;;;3.05;2.00;;;5.50;99.90;;;;;;6283418;22;20387;-80
2023/12/17 04:17:14;;;;;;;2.38;2.28;;;5.50;99.90;;;;;;6310807;22;20684;-81
2023/12/17 04:19:41;;;;;;;1.95;1.85;;;5.50;99.90;;;;;;6310462;22;20193;-81
2023/12/17 04:22:08;;;;;;;1.08;0.95;;;5.50;99.90;;;;;;6311200;22;20233;-81
2023/12/17 04:24:35;;;;;;;1.25;1.25;;;5.60;99.90;;;;;;6310934;22;20209;-84
2023/12/17 04:27:13;;;;;;;2.60;1.55;;;5.60;99.90;;;;;;6286985;22;20166;-79
2023/12/17 04:29:41;;;;;;;0.70;0.70;;;5.50;99.90;;;;;;6312609;22;20217;-87
2023/12/17 04:32:08;;;;;;;1.77;1.67;;;5.60;99.90;;;;;;6312045;22;20212;-82
2023/12/17 04:34:35;;;;;;;0.40;0.40;;;5.70;99.90;;;;;;6312426;22;20182;-80
2023/12/17 04:37:02;;;;;;;0.70;0.70;;;5.80;99.90;;;;;;6326155;22;20189;-82
2023/12/17 04:39:29;;;;;;;0.52;0.52;;;5.70;99.90;;;;;;6328169;22;20216;-84
2023/12/17 04:41:58;;;;;;;0.98;0.98;;;5.80;99.90;;;;;;6330584;22;20209;-83
2023/12/17 04:44:25;;;;;;;0.60;0.60;;;5.80;99.90;;;;;;6320785;22;20194;-84
2023/12/17 04:46:53;;;;;;;0.57;0.57;;;5.80;99.90;;;;;;6316256;22;20216;-82
2023/12/17 04:49:19;;;;;;;2.15;2.05;;;5.70;99.90;;;;;;6315820;22;20234;-83
2023/12/17 04:51:47;;;;;;;1.25;1.25;;;5.70;99.90;;;;;;6315431;22;20514;-87
2023/12/17 04:54:15;;;;;;;0.75;0.75;;;5.70;99.90;;;;;;6315456;22;20182;-85
2023/12/17 04:56:42;;;;;;;1.20;1.15;;;5.70;99.90;;;;;;6312633;22;20182;-82
2023/12/17 04:59:09;;;;;;;0.50;0.50;;;5.70;99.90;;;;;;6313292;22;20471;-83
2023/12/17 05:01:37;;;;;;;1.13;1.13;;;5.80;99.90;;;;;;6315474;22;20182;-84
2023/12/17 05:04:05;;;;;;;1.50;1.40;;;5.80;99.90;;;;;;6316516;22;20366;-88
2023/12/17 05:06:34;;;;;;;0.60;0.60;;;5.70;99.90;;;;;;6319292;22;20202;-89
2023/12/17 05:09:04;;;;;;;0.82;0.82;;;5.70;99.90;;;;;;6317552;22;20204;-83
2023/12/17 05:11:32;;;;;;;1.13;0.80;;;5.70;99.90;;;;;;6313168;22;20178;-84
2023/12/17 05:13:59;;;;;;;1.65;1.55;;;5.60;99.90;;;;;;6313934;22;20177;-87
2023/12/17 05:16:26;;;;;;;2.45;2.28;;;5.60;99.90;;;;;;6311307;22;20860;-84
2023/12/17 05:18:53;;;;;;;1.67;1.63;;;5.60;99.90;;;;;;6311762;22;20250;-82
2023/12/17 05:21:22;;;;;;;0.70;0.70;;;5.60;99.90;;;;;;6312299;22;20189;-82
2023/12/17 05:23:49;;;;;;;0.73;0.73;;;5.60;99.90;;;;;;6315826;22;20213;-84
2023/12/17 05:26:16;;;;;;;1.25;1.25;;;5.60;99.90;;;;;;6316157;22;20194;-85
2023/12/17 05:28:43;;;;;;;2.80;2.70;;;5.60;99.90;;;;;;6316038;22;20261;-81
2023/12/17 05:31:11;;;;;;;0.60;0.60;;;5.70;99.90;;;;;;6314780;22;20174;-84
2023/12/17 05:33:41;;;;;;;1.05;1.05;;;5.80;99.90;;;;;;6316556;22;20179;-85
2023/12/17 05:36:09;;;;;;;1.52;1.25;;;5.90;99.90;;;;;;6314432;22;20217;-84
2023/12/17 05:38:38;;;;;;;2.47;2.38;;;5.80;99.90;;;;;;6314547;22;20189;-88
2023/12/17 05:41:07;;;;;;;1.27;1.27;;;5.90;99.90;;;;;;6314352;22;20221;-85
2023/12/17 05:43:35;;;;;;;1.45;1.35;;;5.90;99.90;;;;;;6314200;22;20174;-85
2023/12/17 05:46:02;;;;;;;0.50;0.50;;;6.00;99.90;;;;;;6285734;22;20277;-85
2023/12/17 05:48:32;;;;;;;1.70;1.60;;;6.00;99.90;;;;;;6299419;22;20206;-84
2023/12/17 05:51:06;;;;;;;2.80;2.15;;;6.00;99.90;;;;;;6297521;22;20174;-84
2023/12/17 05:53:33;;;;;;;0.50;0.50;;;6.00;99.90;;;;;;6323155;22;20174;-83
2023/12/17 05:56:13;;;;;;;1.02;1.02;;;6.00;99.90;;;;;;6325386;22;20171;-84
2023/12/17 05:58:41;;;;;;;0.93;0.93;;;6.10;99.90;;;;;;6321614;22;20171;-86
2023/12/17 06:01:08;;;;;;;1.42;1.33;;;6.00;99.90;;;;;;6325566;22;20166;-85
2023/12/17 06:03:39;;;;;;;1.48;1.42;;;6.10;99.90;;;;;;6321121;22;20167;-83
2023/12/17 06:06:15;;;;;;;0.60;0.60;;;6.00;99.90;;;;;;6326367;22;20186;-85
2023/12/17 06:08:43;;;;;;;0.85;0.85;;;6.00;99.90;;;;;;6327211;22;20237;-84
2023/12/17 06:11:19;;;;;;;0.70;0.70;;;6.00;99.90;;;;;;6292912;22;20181;-85
2023/12/17 06:13:46;;;;;;;1.45;1.35;;;6.00;99.90;;;;;;6312918;22;20769;-86
2023/12/17 06:16:13;;;;;;;0.50;0.50;;;6.00;99.90;;;;;;6316364;22;20220;-86
2023/12/17 06:18:41;;;;;;;2.60;1.88;;;6.10;99.90;;;;;;6285823;22;20648;-81
2023/12/17 06:21:09;;;;;;;0.70;0.70;;;6.00;99.90;;;;;;6288391;22;20269;-83
2023/12/17 06:23:37;;;;;;;0.68;0.68;;;6.00;99.90;;;;;;6297103;22;20178;-85
2023/12/17 06:26:04;;;;;;;0.80;0.80;;;5.90;99.90;;;;;;6320470;22;20201;-85
2023/12/17 06:28:32;;;;;;;2.33;2.22;;;6.00;99.90;;;;;;6314685;22;20177;-84
2023/12/17 06:30:59;;;;;;;1.17;1.17;;;6.00;99.90;;;;;;6330053;22;20170;-79
2023/12/17 06:33:28;;;;;;;0.73;0.73;;;6.10;99.90;;;;;;6334428;22;20158;-81
2023/12/17 06:35:54;;;;;;;3.65;3.33;;;6.10;99.90;;;;;;6334331;22;20170;-80
2023/12/17 06:38:22;;;;;;;2.33;2.13;;;6.20;99.90;;;;;;6331384;22;20189;-83
2023/12/17 06:40:49;;;;;;;1.50;1.40;;;6.20;99.90;;;;;;6318272;22;20189;-79
2023/12/17 06:43:16;;;;;;;0.50;0.50;;;6.10;99.90;;;;;;6316153;22;20210;-80
2023/12/17 06:45:43;;;;;;;0.55;0.55;;;6.30;99.90;;;;;;6313466;22;20226;-83
2023/12/17 06:48:10;;;;;;;1.02;0.93;;;6.30;99.90;;;;;;6312933;22;20510;-81
2023/12/17 06:50:38;;;;;;;0.95;0.95;;;6.30;99.90;;;;;;6311995;22;20201;-83
2023/12/17 06:53:05;;;;;;;1.27;1.20;;;6.30;99.90;;;;;;6310680;22;20209;-79
2023/12/17 06:55:32;;;;;;;0.50;0.50;;;6.30;99.90;;;;;;6310509;22;20177;-81
2023/12/17 06:57:59;;;;;;;1.15;1.15;;;6.40;99.90;;;;;;6310640;22;20174;-82
2023/12/17 07:00:26;;;;;;;0.63;0.63;;;6.40;99.90;;;;;;6284666;22;20217;-85
2023/12/17 07:02:54;;;;;;;1.13;1.08;;;6.40;99.90;;;;;;6311020;22;20166;-81
2023/12/17 07:05:22;;;;;;;6.65;2.30;;;6.40;99.90;;;;;;6310666;22;20229;-82
2023/12/17 07:07:49;;;;;;;1.55;1.45;;;6.30;99.90;;;;;;6284282;22;20185;-81
2023/12/17 07:10:17;;;;;;;1.08;0.98;;;6.30;99.90;;;;;;6310774;22;20197;-80
2023/12/17 07:12:46;;;;;;;1.15;1.15;;;6.30;99.90;;;;;;6310010;22;20178;-82
2023/12/17 07:15:14;;;;;;;2.67;1.58;;;6.30;99.90;;;;;;6311326;22;20487;-83
2023/12/17 07:17:43;;;;;;;3.33;2.05;;;6.30;99.90;;;;;;6311541;22;20417;-82
2023/12/17 07:20:11;;;;;;;1.92;1.83;;;6.30;99.90;;;;;;6311301;22;20182;-85
2023/12/17 07:22:38;;;;;;;0.95;0.95;;;6.30;99.90;;;;;;6310760;22;20214;-80
2023/12/17 07:25:06;;;;;;;1.52;1.42;;;6.30;99.90;;;;;;6309671;22;20202;-83
2023/12/17 07:27:32;;;;;;;1.88;1.77;;;6.30;99.90;;;;;;6284111;22;20241;-82
2023/12/17 07:29:59;;;;;;;1.55;1.50;;;6.30;99.90;;;;;;6310670;22;20178;-80
2023/12/17 07:32:26;;;;;;;0.88;0.88;;;6.30;99.90;;;;;;6282775;22;20178;-80
2023/12/17 07:34:54;;;;;;;0.70;0.70;;;6.30;99.90;;;;;;6309151;22;20182;-80
2023/12/17 07:37:21;;;;;;;1.65;1.55;;;6.30;99.90;;;;;;6310149;22;20200;-84
2023/12/17 07:39:48;;;;;;;0.70;0.70;;;6.20;99.90;;;;;;6309973;22;20205;-81
2023/12/17 07:42:15;;;;;;;0.80;0.80;;;6.30;99.90;;;;;;6282241;22;20228;-81
2023/12/17 07:44:43;;;;;;;0.85;0.85;;;6.30;99.90;;;;;;6309756;22;20637;-84
2023/12/17 07:47:10;;;;;;;1.08;1.08;;;6.30;99.90;;;;;;6310070;22;20185;-78
2023/12/17 07:49:37;;;;;;;1.08;1.08;;;6.30;99.90;;;;;;6309978;22;20201;-83
2023/12/17 07:52:05;;;;;;;0.70;0.70;;;6.30;99.90;;;;;;6310540;22;20178;-80
2023/12/17 07:54:32;;;;;;;4.72;1.80;;;6.30;99.90;;;;;;6311262;22;20445;-80
2023/12/17 07:57:00;;;;;;;1.95;1.85;;;6.40;99.90;;;;;;6310460;22;20189;-79
2023/12/17 07:59:28;;;;;;;0.55;0.55;;;6.40;99.90;;;;;;6309599;22;20584;-80
2023/12/17 08:01:55;;;;;;;0.70;0.70;;;6.40;99.90;;;;;;6308735;22;20202;-80
2023/12/17 08:04:22;;;;;;;1.38;1.30;;;6.40;99.90;;;;;;6310534;22;20190;-81
2023/12/17 08:06:49;;;;;;;0.70;0.70;;;6.50;99.90;;;;;;6309617;22;20205;-84
2023/12/17 08:09:18;;;;;;;0.70;0.70;;;6.50;99.90;;;;;;6312043;22;20174;-78
2023/12/17 08:11:45;;;;;;;0.50;0.50;;;6.50;99.90;;;;;;6282779;22;20185;-80
2023/12/17 08:14:12;;;;;;;1.27;1.23;;;6.50;99.90;;;;;;6309917;22;20185;-80
2023/12/17 08:16:39;;;;;;;1.15;1.10;;;6.50;99.90;;;;;;6309193;22;20182;-79
2023/12/17 08:19:09;;;;;;;1.55;1.45;;;6.40;99.90;;;;;;6283383;22;20189;-84
2023/12/17 08:21:36;;;;;;;0.88;0.88;;;6.50;99.90;;;;;;6310188;22;20200;-83
2023/12/17 08:24:04;;;;;;;2.90;1.25;;;6.40;99.90;;;;;;6285722;22;20182;-83
2023/12/17 08:26:30;;;;;;;0.40;0.40;;;6.40;99.90;;;;;;6311283;22;20202;-81
2023/12/17 08:28:58;;;;;;;0.40;0.40;;;6.40;99.90;;;;;;6312852;22;20201;-81
2023/12/17 08:31:24;;;;;;;0.85;0.85;;;6.40;99.90;;;;;;6284452;22;20201;-83
2023/12/17 08:33:52;;;;;;;2.15;1.73;;;6.40;99.90;;;;;;6311297;22;20174;-85
2023/12/17 08:36:25;;;;;;;0.85;0.85;;;6.40;99.90;;;;;;6309959;22;20204;-88
2023/12/17 08:38:54;;;;;;;0.60;0.60;;;6.40;99.90;;;;;;6311496;22;20192;-82
2023/12/17 08:41:21;;;;;;;0.45;0.45;;;6.40;99.90;;;;;;6310251;22;20182;-86
2023/12/17 08:43:48;;;;;;;1.25;1.15;;;6.40;99.90;;;;;;6311515;22;20213;-80
2023/12/17 08:46:16;;;;;;;1.30;1.30;;;6.40;99.90;;;;;;6313212;22;20719;-87
2023/12/17 08:48:45;;;;;;;0.75;0.75;;;6.40;99.90;;;;;;6313427;22;20193;-86
2023/12/17 08:51:15;;;;;;;0.50;0.50;;;6.40;99.90;;;;;;6313777;22;20429;-81
2023/12/17 08:53:42;;;;;;;4.75;2.95;;;6.50;99.90;;;;;;6287975;22;20216;-86
2023/12/17 08:56:12;;;;;;;1.17;1.17;;;6.50;99.90;;;;;;6287238;22;20182;-83
2023/12/17 08:58:39;;;;;;;2.65;2.45;;;6.40;99.90;;;;;;6315545;22;20232;-86
2023/12/17 09:01:06;;;;;;;0.40;0.40;;;6.50;99.90;;;;;;6315969;22;20569;-84
2023/12/17 09:03:33;;;;;;;1.00;1.00;;;6.60;99.90;;;;;;6314699;22;20182;-86
2023/12/17 09:06:00;;;;;;;0.77;0.77;;;6.50;99.90;;;;;;6315296;22;20202;-81
2023/12/17 09:08:27;;;;;;;0.45;0.45;;;6.70;99.90;;;;;;6287973;22;20182;-83
2023/12/17 09:10:57;;;;;;;0.40;0.40;;;6.60;99.90;;;;;;6316770;22;20206;-87
2023/12/17 09:13:26;;;;;;;0.45;0.45;;;6.60;99.90;;;;;;6316761;22;20166;-85
2023/12/17 09:15:55;;;;;;;1.20;1.13;;;6.60;99.90;;;;;;6315703;22;20183;-87
2023/12/17 09:18:22;;;;;;;0.40;0.40;;;6.60;99.90;;;;;;6320626;22;20174;-85
2023/12/17 09:20:53;;;;;;;0.70;0.70;;;6.60;99.90;;;;;;6314208;22;20278;-86
2023/12/17 09:23:21;;;;;;;0.60;0.60;;;6.60;99.90;;;;;;6316668;22;20178;-82
2023/12/17 09:25:48;;;;;;;0.40;0.40;;;6.60;99.90;;;;;;6300963;22;20246;-81
2023/12/17 09:28:17;;;;;;;0.40;0.40;;;6.60;99.90;;;;;;6162894;22;20209;-83
2023/12/17 09:30:44;;;;;;;0.40;0.40;;;6.60;99.90;;;;;;6177089;22;20186;-81
2023/12/17 09:33:12;;;;;;;0.50;0.50;;;6.60;99.90;;;;;;6175465;22;20218;-80
2023/12/17 09:35:39;;;;;;;0.40;0.40;;;6.70;99.90;;;;;;6323220;22;20186;-85
2023/12/17 09:38:07;;;;;;;1.15;1.13;;;6.80;99.90;;;;;;6317166;22;20193;-83
2023/12/17 09:40:38;;;;;;;0.95;0.95;;;6.70;99.90;;;;;;6318475;22;20184;-84
2023/12/17 09:43:08;;;;;;;0.80;0.80;;;6.70;99.90;;;;;;6318855;22;20178;-85
2023/12/17 09:45:37;;;;;;;0.93;0.93;;;6.70;99.90;;;;;;6315074;22;20513;-82
2023/12/17 09:48:04;;;;;;;0.60;0.60;;;6.60;99.90;;;;;;6316266;22;20261;-85
2023/12/17 09:50:33;;;;;;;0.40;0.40;;;6.70;99.90;;;;;;6315987;22;20166;-82
2023/12/17 09:53:00;;;;;;;0.68;0.68;;;6.70;99.90;;;;;;6314989;22;20233;-84
2023/12/17 09:55:27;;;;;;;1.13;1.13;;;6.80;99.90;;;;;;6321435;22;20159;-86
2023/12/17 09:57:55;;;;;;;0.40;0.40;;;6.80;99.90;;;;;;6316755;22;20174;-86
2023/12/17 10:00:22;;;;;;;0.40;0.40;;;6.80;99.90;;;;;;6317669;22;20178;-84
2023/12/17 10:02:49;;;;;;;0.70;0.70;;;6.90;99.90;;;;;;6317413;22;20245;-82
2023/12/17 10:05:16;;;;;;;1.10;1.10;;;6.90;99.90;;;;;;6318058;22;20204;-83
2023/12/17 10:07:43;;;;;;;1.30;1.30;;;6.80;99.90;;;;;;6316601;22;20205;-85
2023/12/17 10:10:11;;;;;;;0.80;0.80;;;6.80;99.90;;;;;;6316727;22;20184;-86
2023/12/17 10:12:38;;;;;;;0.40;0.40;;;6.70;99.90;;;;;;6316815;22;20179;-85
2023/12/17 10:15:09;;;;;;;0.40;0.40;;;6.70;99.90;;;;;;6317699;22;20539;-82
2023/12/17 10:17:40;;;;;;;0.57;0.57;;;6.70;99.90;;;;;;6322099;22;20223;-86
2023/12/17 10:20:08;;;;;;;0.50;0.50;;;6.80;99.90;;;;;;6314018;22;20229;-82
2023/12/17 10:22:35;;;;;;;0.70;0.70;;;6.90;99.90;;;;;;6317066;22;20158;-85
2023/12/17 10:25:02;;;;;;;1.58;1.50;;;7.00;99.90;;;;;;6313055;22;20273;-85
2023/12/17 10:27:30;;;;;;;0.40;0.40;;;7.10;99.90;;;;;;6313154;22;20447;-82
2023/12/17 10:30:01;;;;;;;0.50;0.50;;;7.20;99.90;;;;;;6313577;22;20177;-83
2023/12/17 10:32:28;;;;;;;0.50;0.50;;;7.10;99.90;;;;;;6313419;22;20162;-83
2023/12/17 10:34:57;;;;;;;2.72;2.58;;;7.00;99.90;;;;;;6313655;22;20271;-84
2023/12/17 10:37:25;;;;;;;1.35;1.35;;;7.10;99.90;;;;;;6312655;22;20692;-81
2023/12/17 10:39:54;;;;;;;0.65;0.65;;;7.10;99.90;;;;;;6312782;22;20549;-83
2023/12/17 10:42:24;;;;;;;1.25;1.25;;;7.10;99.90;;;;;;6312555;22;20224;-84
2023/12/17 10:44:52;;;;;;;3.15;2.42;;;7.10;99.90;;;;;;6312818;22;20598;-80
2023/12/17 10:47:25;;;;;;;0.77;0.77;;;7.10;99.90;;;;;;6311955;22;20205;-80
2023/12/17 10:49:53;;;;;;;0.40;0.40;;;7.10;99.90;;;;;;6323435;22;20234;-88
2023/12/17 10:52:24;;;;;;;2.47;2.35;;;7.10;99.90;;;;;;6325457;22;20174;-84
2023/12/17 10:54:52;;;;;;;0.70;0.70;;;7.10;99.90;;;;;;6321586;22;20167;-84
2023/12/17 10:57:24;;;;;;;0.90;0.90;;;7.20;99.90;;;;;;6325802;22;20166;-88
2023/12/17 10:59:57;;;;;;;0.40;0.40;;;7.20;99.90;;;;;;6329550;22;20195;-87
2023/12/17 11:02:29;;;;;;;0.40;0.40;;;7.20;99.90;;;;;;6282752;22;20234;-87
2023/12/17 11:05:00;;;;;;;0.40;0.40;;;7.20;99.90;;;;;;6308829;22;20154;-87
2023/12/17 11:07:30;;;;;;;0.50;0.50;;;7.20;99.90;;;;;;6268909;22;20393;-87
2023/12/17 11:10:10;;;;;;;0.70;0.70;;;7.30;99.90;;;;;;6196662;22;20200;-88
2023/12/17 11:20:58;;;;;;;0.95;0.95;;;7.30;99.90;;;;;;6311837;22;20198;-86
2023/12/17 11:23:29;;;;;;;0.50;0.50;;;7.30;99.90;;;;;;6334171;22;20166;-87
2023/12/17 11:25:56;;;;;;;0.60;0.60;;;7.20;99.90;;;;;;6308564;22;20205;-89
2023/12/17 11:28:25;;;;;;;0.40;0.40;;;7.30;99.90;;;;;;6308441;22;20174;-90
2023/12/17 11:30:56;;;;;;;0.50;0.50;;;7.30;99.90;;;;;;6297228;22;20218;-88
2023/12/17 11:33:25;;;;;;;0.50;0.50;;;7.40;99.90;;;;;;6323186;22;20162;-87
2023/12/17 11:35:55;;;;;;;0.60;0.60;;;7.40;99.90;;;;;;6324666;22;20178;-88
2023/12/17 11:38:25;;;;;;;0.40;0.40;;;7.40;99.90;;;;;;6296862;22;20261;-89
2023/12/17 11:40:54;;;;;;;0.40;0.40;;;7.30;99.90;;;;;;6324052;22;20185;-86
2023/12/17 11:43:23;;;;;;;0.70;0.70;;;7.30;99.90;;;;;;6297612;22;20170;-87
2023/12/17 11:45:51;;;;;;;0.40;0.40;;;7.90;99.90;;;;;;6303257;22;20190;-86
2023/12/17 11:48:22;;;;;;;0.47;0.47;;;7.50;99.90;;;;;;6304350;22;20170;-87
2023/12/17 11:50:52;;;;;;;2.78;1.80;;;7.30;99.90;;;;;;6334854;22;20185;-87
2023/12/17 11:53:20;;;;;;;0.95;0.95;;;7.30;99.90;;;;;;6311238;22;20209;-87
2023/12/17 11:55:50;;;;;;;1.65;1.60;;;7.20;99.90;;;;;;6308265;22;20161;-84
2023/12/17 11:58:19;;;;;;;0.40;0.40;;;7.20;99.90;;;;;;6334141;22;20163;-89
2023/12/17 12:03:38;;;;;;;0.68;0.68;;;7.30;99.90;;;;;;6326692;22;20197;-89
2023/12/17 12:06:09;;;;;;;0.40;0.40;;;7.30;99.90;;;;;;6249966;22;20227;-88
2023/12/17 12:08:45;;;;;;;1.13;1.13;;;7.30;99.90;;;;;;6173013;22;20172;-87
2023/12/17 12:11:14;;;;;;;0.40;0.40;;;7.40;99.90;;;;;;6144570;23;20173;-86
2023/12/17 12:13:44;;;;;;;0.63;0.63;;;7.30;99.90;;;;;;6167045;23;20173;-83
2023/12/17 12:16:12;;;;;;;0.55;0.55;;;7.30;99.90;;;;;;6167668;22;20174;-86
2023/12/17 12:18:40;;;;;;;0.80;0.80;;;7.40;99.90;;;;;;6165717;23;20173;-88
2023/12/17 12:21:18;;;;;;;1.02;1.02;;;7.40;99.90;;;;;;6143507;22;20255;-85
2023/12/17 12:23:53;;;;;;;0.70;0.70;;;7.40;99.90;;;;;;6138051;23;20181;-87
2023/12/17 12:26:25;;;;;;;3.58;1.48;;;7.40;99.90;;;;;;6170473;22;20207;-86
2023/12/17 12:28:59;;;;;;;0.50;0.50;;;7.50;99.90;;;;;;6170015;22;20170;-84
2023/12/17 12:31:28;;;;;;;0.50;0.50;;;7.50;99.90;;;;;;6166485;22;20184;-87
2023/12/17 12:33:59;;;;;;;0.50;0.50;;;7.50;99.90;;;;;;6137997;23;20180;-85
2023/12/17 12:36:42;;;;;;;0.50;0.50;;;7.50;99.90;;;;;;6165835;23;20190;-82
2023/12/17 12:39:09;;;;;;;0.73;0.73;;;7.50;99.90;;;;;;6146053;23;20185;-87
2023/12/17 12:41:46;;;;;;;0.50;0.50;;;7.50;99.90;;;;;;6116914;23;20169;-84
2023/12/17 12:44:15;;;;;;;0.40;0.40;;;7.60;99.90;;;;;;6143142;23;20189;-85
2023/12/17 12:46:45;;;;;;;0.88;0.80;;;7.50;99.90;;;;;;6141230;23;20193;-84
2023/12/17 12:49:13;;;;;;;0.40;0.40;;;7.60;99.90;;;;;;6163218;23;20171;-87
2023/12/17 12:51:40;;;;;;;0.50;0.50;;;7.60;99.90;;;;;;6114175;23;20232;-84
2023/12/17 12:54:09;;;;;;;0.40;0.40;;;7.70;99.90;;;;;;6165728;23;20335;-86
2023/12/17 12:56:37;;;;;;;0.40;0.40;;;7.60;99.90;;;;;;6163342;23;20180;-85
2023/12/17 12:59:04;;;;;;;0.63;0.63;;;7.60;99.90;;;;;;6137384;23;20196;-85
2023/12/17 13:01:33;;;;;;;0.82;0.82;;;7.60;99.90;;;;;;6164995;23;20177;-86
2023/12/17 13:04:03;;;;;;;0.65;0.65;;;7.70;99.90;;;;;;6144372;22;20229;-85
2023/12/17 13:06:32;;;;;;;1.45;1.45;;;7.70;99.90;;;;;;6166636;23;20362;-85
2023/12/17 13:09:00;;;;;;;0.50;0.50;;;7.60;99.90;;;;;;6141286;23;20169;-85
2023/12/17 13:12:00;;;;;;;0.40;0.40;;;7.70;99.90;;;;;;6149053;23;20182;-85
2023/12/17 13:14:38;;;;;;;0.40;0.40;;;7.70;99.90;;;;;;6139587;23;20397;-85
2023/12/17 13:17:24;;;;;;;1.25;1.25;;;7.70;99.90;;;;;;6312557;22;20201;-89